Detall de PIREP

Printer-friendly versionPDF version

[2012/06/16 10:18:00]
Flight IATA:CT1004
Pilot Number:042
Company ICAO:CAT
Aircraft Type:F70/E
PAX:32
Aircraft Registration:DA
Departing Airport: LEGE
Destination Airport: LFMP
Alternate Airport:LFBO
Online: VATSIM
Route:BGR A27 KANIG
Flight Level:F120
No Slew and time accel
No pause
Crash detect
Detect pilot in Cockpit between each 30 and 45 minutes
10:18 Zero fuel Weight: 72667 Lbs, Fuel Weight: 22687 Lbs
10:18 VATSIM:LEGE 161000Z 17009KT 140V230 CAVOK 27/13 Q1019
10:18 VATSIM:LFMP 161000Z 05007KT 360V100 9999 SCT021 24/17 Q1019
10:21 VOICE CATALONIAN/FLAMA DEL CANIGO
10:26 Parking Brakes off
10:30 Take-off
10:30 Take off Weight: 94997 Lbs
10:30 Wind: 144º @ 009 Knots Heading: 194º
10:30 POS N41º 54´ 06´´ E002º 45´ 40´´
10:30 Gear Up: 144 Knots
10:30 Flaps:2 at 144 Knots
10:30 Flaps:1 at 158 Knots
10:31 Flaps:0 at 162 Knots
10:36 TOC
10:36 Fuel Weight: 21467 Lb
10:40 TOD
10:40 Fuel Weight: 21077 Lb
10:45 Wind:088º@006 Knots Heading: 295º Ground Speed: 206 Knots Altitude 2854 ft
10:45 Flaps:1 at 189 Knots
10:45 Flaps:2 at 186 Knots
10:46 Flaps:3 at 183 Knots
10:46 Gear Down: 181 Knots
10:46 Flaps:4 at 179 Knots
10:46 Flaps:3 at 173 Knots
10:49 TouchDown:Rate -340 ft/min Speed: 116 Knots
10:49 VATSIM:LFMP 161030Z 07006KT 040V120 9999 SCT023 24/16 Q1019
10:49 Land
10:49 Wind:068º@006 Knots
10:49 Heading: 329º
10:49 Flight Duration: 00:19
10:49 Landing Weight: 93323 Lbs
10:49 POS N42º 45´ 00´´ E002º 51´ 54´´
10:53 Parking brakes on
10:53 Block to Block Duration: 00:27
10:53 Final Fuel: 20443 Lbls
10:53 Spent Fuel: 2244 Lbls
10:53 Flight Length: 84 NM
10:53 TOD Land Length: 33 NM

Exportar CSV

Powered by Drupal - Modified by Danger4k